Enter the Airport ICAO Code

Search by Airport or City

Current Weather

SCIE | Carriel Sur International Airport

Concepción, Chile

Last Update 24 Minutes Ago

Clear Sky

Temperature of 11 ºC

Light to Moderate Winds from South

Temperature

11 ºC

Dew Point Temperature

10 ºC

Relative Humidity

93.58 %

Wind Direction

South (200º, Without Significant Variations)

Wind Velocity

11 km/h (06 kt)

Gusts

None

Visibility

No Significant Reductions

Sea Level Pressure

1012 hPa (Hectopascals)

Layers of Clouds

None

METAR SCIE 091100Z 20006KT CAVOK 11/10 Q1012

Weather Forecast

SCIE | Carriel Sur International Airport

Concepción, Chile

Forecast valid for the next 25 Hours

In 1 hour it is expected the begining of:

Clear Sky

Light to Moderate Winds from SouthWest

In 5 to 7 hours it is expected the begining of:

Moderate Winds from SouthWest

In 15 to 17 hours it is expected the begining of:

Light to Moderate Winds from NorthWest

In 17 to 19 hours it is expected the begining of:

Partly Cloudy Sky

Maximum Temperature

20 ºC in 7 Hours

Minimum Temperature

12 ºC in 23 Hours

TAF SCIE 091000Z 0912/1012 21008KT CAVOK TX20/0918Z TN12/1010Z BECMG 0916/0918 23012KT BECMG 1002/1004 30005KT BECMG 1004/1006 SCT015